Melaka, Malaysia
Current Conditions -  °F | °C
As of 6:00 AM on Friday 19 Dec 2014 (Local Time) from WMKM Reporting Station
Broken Clouds Broken Clouds  
Wind Chill: 77°   Ceiling: 14000
Heat Index: 78°   Visibility: 6mi
Dew Point: 73°   Wind: 3mph
Humidity: 89%   Direction: 20°NNE
Pressure: 29.85"   Gusts: NA
Location:  2.21°N, 102.25°E
Report Text: WMKM 182200Z 02003KT 9999 FEW028 BKN140 25/23 Q1011
Loading
Personal Weather Stations






























Interactive Weather Map New forecast layout! Learn more

10-Day Weather Forecast

Advertisements
Track Severe Weather on mobile